sensor_id;sensor_type;location;lat;lon;timestamp;temperature;humidity
10530;DHT22;5313;48.834;9.228;2023-08-06T00:01:49;15.50;99.90
10530;DHT22;5313;48.834;9.228;2023-08-06T00:04:14;15.40;99.90
10530;DHT22;5313;48.834;9.228;2023-08-06T00:06:40;15.50;99.90
10530;DHT22;5313;48.834;9.228;2023-08-06T00:09:06;15.50;99.90
10530;DHT22;5313;48.834;9.228;2023-08-06T00:11:32;15.60;99.90
10530;DHT22;5313;48.834;9.228;2023-08-06T00:13:57;15.50;99.90
10530;DHT22;5313;48.834;9.228;2023-08-06T00:16:23;15.50;99.90
10530;DHT22;5313;48.834;9.228;2023-08-06T00:18:48;15.50;99.90
10530;DHT22;5313;48.834;9.228;2023-08-06T00:21:14;15.60;99.90
10530;DHT22;5313;48.834;9.228;2023-08-06T00:23:40;15.50;99.90
10530;DHT22;5313;48.834;9.228;2023-08-06T00:26:06;15.50;99.90
10530;DHT22;5313;48.834;9.228;2023-08-06T00:28:31;15.40;99.90
10530;DHT22;5313;48.834;9.228;2023-08-06T00:30:57;15.40;99.90
10530;DHT22;5313;48.834;9.228;2023-08-06T00:33:23;15.40;99.90
10530;DHT22;5313;48.834;9.228;2023-08-06T00:35:49;15.40;99.90
10530;DHT22;5313;48.834;9.228;2023-08-06T00:38:15;15.30;99.90
10530;DHT22;5313;48.834;9.228;2023-08-06T00:40:40;15.30;99.90
10530;DHT22;5313;48.834;9.228;2023-08-06T00:43:06;15.30;99.90
10530;DHT22;5313;48.834;9.228;2023-08-06T00:45:34;15.30;99.90
10530;DHT22;5313;48.834;9.228;2023-08-06T00:48:01;15.30;99.90
10530;DHT22;5313;48.834;9.228;2023-08-06T00:50:27;15.30;99.90
10530;DHT22;5313;48.834;9.228;2023-08-06T00:52:53;15.20;99.90
10530;DHT22;5313;48.834;9.228;2023-08-06T00:55:19;15.10;99.90
10530;DHT22;5313;48.834;9.228;2023-08-06T00:57:45;15.20;99.90
10530;DHT22;5313;48.834;9.228;2023-08-06T01:00:11;15.20;99.90
10530;DHT22;5313;48.834;9.228;2023-08-06T01:02:37;15.10;99.90
10530;DHT22;5313;48.834;9.228;2023-08-06T01:05:03;15.20;99.90
10530;DHT22;5313;48.834;9.228;2023-08-06T01:07:48;15.10;99.90
10530;DHT22;5313;48.834;9.228;2023-08-06T01:10:26;15.10;99.90
10530;DHT22;5313;48.834;9.228;2023-08-06T01:15:55;15.10;99.90
10530;DHT22;5313;48.834;9.228;2023-08-06T01:18:23;15.10;99.90
10530;DHT22;5313;48.834;9.228;2023-08-06T01:20:49;15.20;99.90
10530;DHT22;5313;48.834;9.228;2023-08-06T01:23:15;15.20;99.90
10530;DHT22;5313;48.834;9.228;2023-08-06T01:31:22;15.10;99.90
10530;DHT22;5313;48.834;9.228;2023-08-06T01:33:49;15.20;99.90
10530;DHT22;5313;48.834;9.228;2023-08-06T01:36:17;15.30;99.90
10530;DHT22;5313;48.834;9.228;2023-08-06T01:38:44;15.30;99.90
10530;DHT22;5313;48.834;9.228;2023-08-06T01:41:10;15.20;99.90
10530;DHT22;5313;48.834;9.228;2023-08-06T01:43:35;15.20;99.90
10530;DHT22;5313;48.834;9.228;2023-08-06T01:46:01;15.20;99.90
10530;DHT22;5313;48.834;9.228;2023-08-06T01:48:26;15.10;99.90
10530;DHT22;5313;48.834;9.228;2023-08-06T01:50:52;15.00;99.90
10530;DHT22;5313;48.834;9.228;2023-08-06T01:53:17;15.00;99.90
10530;DHT22;5313;48.834;9.228;2023-08-06T01:55:48;15.00;99.90
10530;DHT22;5313;48.834;9.228;2023-08-06T01:58:13;15.10;99.90
10530;DHT22;5313;48.834;9.228;2023-08-06T02:00:39;15.10;99.90
10530;DHT22;5313;48.834;9.228;2023-08-06T02:03:05;15.10;99.90
10530;DHT22;5313;48.834;9.228;2023-08-06T02:05:30;15.10;99.90
10530;DHT22;5313;48.834;9.228;2023-08-06T02:07:56;15.00;99.90
10530;DHT22;5313;48.834;9.228;2023-08-06T02:10:21;15.00;99.90
10530;DHT22;5313;48.834;9.228;2023-08-06T02:12:47;15.00;99.90
10530;DHT22;5313;48.834;9.228;2023-08-06T02:15:12;15.00;99.90
10530;DHT22;5313;48.834;9.228;2023-08-06T02:17:38;15.00;99.90
10530;DHT22;5313;48.834;9.228;2023-08-06T02:20:04;15.00;99.90
10530;DHT22;5313;48.834;9.228;2023-08-06T02:22:30;14.90;99.90
10530;DHT22;5313;48.834;9.228;2023-08-06T02:24:55;14.90;99.90
10530;DHT22;5313;48.834;9.228;2023-08-06T02:27:21;14.90;99.90
10530;DHT22;5313;48.834;9.228;2023-08-06T02:29:46;14.90;99.90
10530;DHT22;5313;48.834;9.228;2023-08-06T02:32:12;14.80;99.90
10530;DHT22;5313;48.834;9.228;2023-08-06T02:34:37;14.80;99.90
10530;DHT22;5313;48.834;9.228;2023-08-06T02:37:03;14.70;99.90
10530;DHT22;5313;48.834;9.228;2023-08-06T02:39:28;14.70;99.90
10530;DHT22;5313;48.834;9.228;2023-08-06T02:41:54;14.60;99.90
10530;DHT22;5313;48.834;9.228;2023-08-06T02:44:19;14.60;99.90
10530;DHT22;5313;48.834;9.228;2023-08-06T02:46:45;14.60;99.90
10530;DHT22;5313;48.834;9.228;2023-08-06T02:49:11;14.50;99.90
10530;DHT22;5313;48.834;9.228;2023-08-06T02:51:36;14.40;99.90
10530;DHT22;5313;48.834;9.228;2023-08-06T02:54:02;14.40;99.90
10530;DHT22;5313;48.834;9.228;2023-08-06T02:56:27;14.40;99.90
10530;DHT22;5313;48.834;9.228;2023-08-06T02:58:53;14.40;99.90
10530;DHT22;5313;48.834;9.228;2023-08-06T03:01:18;14.40;99.90
10530;DHT22;5313;48.834;9.228;2023-08-06T03:03:44;14.40;99.90
10530;DHT22;5313;48.834;9.228;2023-08-06T03:06:09;14.40;99.90
10530;DHT22;5313;48.834;9.228;2023-08-06T03:08:35;14.30;99.90
10530;DHT22;5313;48.834;9.228;2023-08-06T03:11:01;14.30;99.90
10530;DHT22;5313;48.834;9.228;2023-08-06T03:13:26;14.30;99.90
10530;DHT22;5313;48.834;9.228;2023-08-06T03:15:54;14.30;99.90
10530;DHT22;5313;48.834;9.228;2023-08-06T03:18:20;14.30;99.90
10530;DHT22;5313;48.834;9.228;2023-08-06T03:20:46;14.30;99.90
10530;DHT22;5313;48.834;9.228;2023-08-06T03:23:12;14.30;99.90
10530;DHT22;5313;48.834;9.228;2023-08-06T03:25:37;14.30;99.90
10530;DHT22;5313;48.834;9.228;2023-08-06T03:28:03;14.30;99.90
10530;DHT22;5313;48.834;9.228;2023-08-06T03:30:29;14.30;99.90
10530;DHT22;5313;48.834;9.228;2023-08-06T03:32:54;14.40;99.90
10530;DHT22;5313;48.834;9.228;2023-08-06T03:35:20;14.40;99.90
10530;DHT22;5313;48.834;9.228;2023-08-06T03:37:46;14.40;99.90
10530;DHT22;5313;48.834;9.228;2023-08-06T03:40:11;14.40;99.90
10530;DHT22;5313;48.834;9.228;2023-08-06T03:42:37;14.40;99.90
10530;DHT22;5313;48.834;9.228;2023-08-06T03:45:02;14.40;99.90
10530;DHT22;5313;48.834;9.228;2023-08-06T03:47:28;14.40;99.90
10530;DHT22;5313;48.834;9.228;2023-08-06T03:49:54;14.30;99.90
10530;DHT22;5313;48.834;9.228;2023-08-06T03:52:19;14.20;99.90
10530;DHT22;5313;48.834;9.228;2023-08-06T03:54:45;14.20;99.90
10530;DHT22;5313;48.834;9.228;2023-08-06T03:57:10;14.10;99.90
10530;DHT22;5313;48.834;9.228;2023-08-06T03:59:36;14.20;99.90
10530;DHT22;5313;48.834;9.228;2023-08-06T04:02:01;14.20;99.90
10530;DHT22;5313;48.834;9.228;2023-08-06T04:04:27;14.20;99.90
10530;DHT22;5313;48.834;9.228;2023-08-06T04:06:53;14.20;99.90
10530;DHT22;5313;48.834;9.228;2023-08-06T04:09:18;14.20;99.90
10530;DHT22;5313;48.834;9.228;2023-08-06T04:11:44;14.20;99.90
10530;DHT22;5313;48.834;9.228;2023-08-06T04:14:09;14.10;99.90
10530;DHT22;5313;48.834;9.228;2023-08-06T04:16:35;14.10;99.90
10530;DHT22;5313;48.834;9.228;2023-08-06T04:19:00;14.00;99.90
10530;DHT22;5313;48.834;9.228;2023-08-06T04:21:26;14.10;99.90
10530;DHT22;5313;48.834;9.228;2023-08-06T04:23:51;14.00;99.90
10530;DHT22;5313;48.834;9.228;2023-08-06T04:26:17;14.00;99.90
10530;DHT22;5313;48.834;9.228;2023-08-06T04:28:42;14.00;99.90
10530;DHT22;5313;48.834;9.228;2023-08-06T04:31:08;14.00;99.90
10530;DHT22;5313;48.834;9.228;2023-08-06T04:33:33;14.00;99.90
10530;DHT22;5313;48.834;9.228;2023-08-06T04:35:59;14.00;99.90
10530;DHT22;5313;48.834;9.228;2023-08-06T04:38:25;14.00;99.90
10530;DHT22;5313;48.834;9.228;2023-08-06T04:40:51;13.90;99.90
10530;DHT22;5313;48.834;9.228;2023-08-06T04:43:16;14.00;99.90
10530;DHT22;5313;48.834;9.228;2023-08-06T04:45:49;14.10;99.90
10530;DHT22;5313;48.834;9.228;2023-08-06T04:48:15;14.20;99.90
10530;DHT22;5313;48.834;9.228;2023-08-06T04:50:47;14.10;99.90
10530;DHT22;5313;48.834;9.228;2023-08-06T04:53:13;14.10;99.90
10530;DHT22;5313;48.834;9.228;2023-08-06T04:55:39;14.10;99.90
10530;DHT22;5313;48.834;9.228;2023-08-06T04:58:05;14.10;99.90
10530;DHT22;5313;48.834;9.228;2023-08-06T05:00:31;14.10;99.90
10530;DHT22;5313;48.834;9.228;2023-08-06T05:02:56;14.20;99.90
10530;DHT22;5313;48.834;9.228;2023-08-06T05:05:22;14.20;99.90
10530;DHT22;5313;48.834;9.228;2023-08-06T05:07:49;14.30;99.90
10530;DHT22;5313;48.834;9.228;2023-08-06T05:10:15;14.40;99.90
10530;DHT22;5313;48.834;9.228;2023-08-06T05:12:41;14.40;99.90
10530;DHT22;5313;48.834;9.228;2023-08-06T05:15:07;14.40;99.90
10530;DHT22;5313;48.834;9.228;2023-08-06T05:17:32;14.30;99.90
10530;DHT22;5313;48.834;9.228;2023-08-06T05:19:58;14.40;99.90
10530;DHT22;5313;48.834;9.228;2023-08-06T05:22:23;14.50;99.90
10530;DHT22;5313;48.834;9.228;2023-08-06T05:24:49;14.50;99.90
10530;DHT22;5313;48.834;9.228;2023-08-06T05:27:14;14.50;99.90
10530;DHT22;5313;48.834;9.228;2023-08-06T05:29:40;14.50;99.90
10530;DHT22;5313;48.834;9.228;2023-08-06T05:32:06;14.40;99.90
10530;DHT22;5313;48.834;9.228;2023-08-06T05:34:31;14.40;99.90
10530;DHT22;5313;48.834;9.228;2023-08-06T05:36:57;14.50;99.90
10530;DHT22;5313;48.834;9.228;2023-08-06T05:39:22;14.60;99.90
10530;DHT22;5313;48.834;9.228;2023-08-06T05:41:48;14.50;99.90
10530;DHT22;5313;48.834;9.228;2023-08-06T05:44:13;14.60;99.90
10530;DHT22;5313;48.834;9.228;2023-08-06T05:46:39;14.70;99.90
10530;DHT22;5313;48.834;9.228;2023-08-06T05:49:04;14.70;99.90
10530;DHT22;5313;48.834;9.228;2023-08-06T05:51:30;14.70;99.90
10530;DHT22;5313;48.834;9.228;2023-08-06T05:53:56;14.80;99.90
10530;DHT22;5313;48.834;9.228;2023-08-06T05:56:21;14.80;99.90
10530;DHT22;5313;48.834;9.228;2023-08-06T05:58:47;14.80;99.90
10530;DHT22;5313;48.834;9.228;2023-08-06T06:01:13;14.80;99.90
10530;DHT22;5313;48.834;9.228;2023-08-06T06:03:38;14.90;99.90
10530;DHT22;5313;48.834;9.228;2023-08-06T06:06:04;14.90;99.90
10530;DHT22;5313;48.834;9.228;2023-08-06T06:08:29;14.90;99.90
10530;DHT22;5313;48.834;9.228;2023-08-06T06:10:55;14.90;99.90
10530;DHT22;5313;48.834;9.228;2023-08-06T06:13:20;14.90;99.90
10530;DHT22;5313;48.834;9.228;2023-08-06T06:15:46;14.90;99.90
10530;DHT22;5313;48.834;9.228;2023-08-06T06:18:13;14.90;99.90
10530;DHT22;5313;48.834;9.228;2023-08-06T06:20:38;14.90;99.90
10530;DHT22;5313;48.834;9.228;2023-08-06T06:23:04;14.90;99.90
10530;DHT22;5313;48.834;9.228;2023-08-06T06:25:29;14.90;99.90
10530;DHT22;5313;48.834;9.228;2023-08-06T06:27:55;14.70;99.90
10530;DHT22;5313;48.834;9.228;2023-08-06T06:30:20;14.70;99.90
10530;DHT22;5313;48.834;9.228;2023-08-06T06:32:46;14.60;99.90
10530;DHT22;5313;48.834;9.228;2023-08-06T06:35:12;14.50;99.90
10530;DHT22;5313;48.834;9.228;2023-08-06T06:37:37;14.50;99.90
10530;DHT22;5313;48.834;9.228;2023-08-06T06:40:03;14.40;99.90
10530;DHT22;5313;48.834;9.228;2023-08-06T06:42:29;14.40;99.90
10530;DHT22;5313;48.834;9.228;2023-08-06T06:44:55;14.50;99.90
10530;DHT22;5313;48.834;9.228;2023-08-06T06:47:20;14.50;99.90
10530;DHT22;5313;48.834;9.228;2023-08-06T06:49:46;14.40;99.90
10530;DHT22;5313;48.834;9.228;2023-08-06T06:52:11;14.40;99.90
10530;DHT22;5313;48.834;9.228;2023-08-06T06:54:37;14.50;99.90
10530;DHT22;5313;48.834;9.228;2023-08-06T06:57:02;14.50;99.90
10530;DHT22;5313;48.834;9.228;2023-08-06T06:59:28;14.90;99.90
10530;DHT22;5313;48.834;9.228;2023-08-06T07:01:53;14.60;99.90
10530;DHT22;5313;48.834;9.228;2023-08-06T07:04:19;14.60;99.90
10530;DHT22;5313;48.834;9.228;2023-08-06T07:06:44;14.60;99.90
10530;DHT22;5313;48.834;9.228;2023-08-06T07:09:10;14.60;99.90
10530;DHT22;5313;48.834;9.228;2023-08-06T07:11:35;14.70;99.90
10530;DHT22;5313;48.834;9.228;2023-08-06T07:14:01;14.80;99.90
10530;DHT22;5313;48.834;9.228;2023-08-06T07:16:27;14.80;99.90
10530;DHT22;5313;48.834;9.228;2023-08-06T07:18:53;14.90;99.90
10530;DHT22;5313;48.834;9.228;2023-08-06T07:21:19;14.80;99.90
10530;DHT22;5313;48.834;9.228;2023-08-06T07:23:45;14.90;99.90
10530;DHT22;5313;48.834;9.228;2023-08-06T07:26:11;14.90;99.90
10530;DHT22;5313;48.834;9.228;2023-08-06T07:28:36;14.80;99.90
10530;DHT22;5313;48.834;9.228;2023-08-06T07:31:03;14.80;99.90
10530;DHT22;5313;48.834;9.228;2023-08-06T07:33:29;14.80;99.90
10530;DHT22;5313;48.834;9.228;2023-08-06T07:35:54;14.80;99.90
10530;DHT22;5313;48.834;9.228;2023-08-06T07:38:20;14.70;99.90
10530;DHT22;5313;48.834;9.228;2023-08-06T07:40:45;14.70;99.90
10530;DHT22;5313;48.834;9.228;2023-08-06T07:43:11;14.70;99.90
10530;DHT22;5313;48.834;9.228;2023-08-06T07:45:37;14.70;99.90
10530;DHT22;5313;48.834;9.228;2023-08-06T07:48:03;14.70;99.90
10530;DHT22;5313;48.834;9.228;2023-08-06T07:50:29;14.80;99.90
10530;DHT22;5313;48.834;9.228;2023-08-06T07:52:55;14.80;99.90
10530;DHT22;5313;48.834;9.228;2023-08-06T07:55:20;14.90;99.90
10530;DHT22;5313;48.834;9.228;2023-08-06T07:57:46;14.90;99.90
10530;DHT22;5313;48.834;9.228;2023-08-06T08:00:11;14.90;99.90
10530;DHT22;5313;48.834;9.228;2023-08-06T08:02:37;14.90;99.90
10530;DHT22;5313;48.834;9.228;2023-08-06T08:05:02;14.90;99.90
10530;DHT22;5313;48.834;9.228;2023-08-06T08:07:28;14.90;99.90
10530;DHT22;5313;48.834;9.228;2023-08-06T08:09:56;15.00;99.90
10530;DHT22;5313;48.834;9.228;2023-08-06T08:12:22;15.00;99.90
10530;DHT22;5313;48.834;9.228;2023-08-06T08:14:47;15.10;99.90
10530;DHT22;5313;48.834;9.228;2023-08-06T08:17:13;15.20;99.90
10530;DHT22;5313;48.834;9.228;2023-08-06T08:19:40;15.30;99.90
10530;DHT22;5313;48.834;9.228;2023-08-06T08:22:05;15.40;99.90
10530;DHT22;5313;48.834;9.228;2023-08-06T08:24:31;15.50;99.90
10530;DHT22;5313;48.834;9.228;2023-08-06T08:26:56;15.60;99.90
10530;DHT22;5313;48.834;9.228;2023-08-06T08:29:22;15.80;99.90
10530;DHT22;5313;48.834;9.228;2023-08-06T08:31:48;15.90;99.90
10530;DHT22;5313;48.834;9.228;2023-08-06T08:34:17;16.00;99.90
10530;DHT22;5313;48.834;9.228;2023-08-06T08:36:43;16.00;99.90
10530;DHT22;5313;48.834;9.228;2023-08-06T08:39:09;16.00;99.90
10530;DHT22;5313;48.834;9.228;2023-08-06T08:41:36;16.20;99.90
10530;DHT22;5313;48.834;9.228;2023-08-06T08:44:03;16.30;99.90
10530;DHT22;5313;48.834;9.228;2023-08-06T08:46:32;16.30;99.90
10530;DHT22;5313;48.834;9.228;2023-08-06T08:48:59;16.40;99.90
10530;DHT22;5313;48.834;9.228;2023-08-06T08:51:28;16.70;99.90
10530;DHT22;5313;48.834;9.228;2023-08-06T08:53:56;16.70;99.90
10530;DHT22;5313;48.834;9.228;2023-08-06T08:56:24;16.70;99.90
10530;DHT22;5313;48.834;9.228;2023-08-06T08:58:50;16.70;99.90
10530;DHT22;5313;48.834;9.228;2023-08-06T09:01:19;16.60;99.90
10530;DHT22;5313;48.834;9.228;2023-08-06T09:03:46;16.20;99.90
10530;DHT22;5313;48.834;9.228;2023-08-06T09:06:12;15.90;99.90
10530;DHT22;5313;48.834;9.228;2023-08-06T09:08:47;15.60;99.90
10530;DHT22;5313;48.834;9.228;2023-08-06T09:11:12;15.40;99.90
10530;DHT22;5313;48.834;9.228;2023-08-06T09:13:38;15.30;99.90
10530;DHT22;5313;48.834;9.228;2023-08-06T09:16:04;15.40;99.90
10530;DHT22;5313;48.834;9.228;2023-08-06T09:18:30;15.20;99.90
10530;DHT22;5313;48.834;9.228;2023-08-06T09:20:57;15.20;99.90
10530;DHT22;5313;48.834;9.228;2023-08-06T09:23:29;15.20;99.90
10530;DHT22;5313;48.834;9.228;2023-08-06T09:25:56;15.40;99.90
10530;DHT22;5313;48.834;9.228;2023-08-06T09:28:22;15.60;99.90
10530;DHT22;5313;48.834;9.228;2023-08-06T09:30:50;15.80;99.90
10530;DHT22;5313;48.834;9.228;2023-08-06T09:33:19;15.90;99.90
10530;DHT22;5313;48.834;9.228;2023-08-06T09:35:46;16.00;99.90
10530;DHT22;5313;48.834;9.228;2023-08-06T09:38:12;15.90;99.90
10530;DHT22;5313;48.834;9.228;2023-08-06T09:40:39;15.80;99.90
10530;DHT22;5313;48.834;9.228;2023-08-06T09:43:05;15.80;99.90
10530;DHT22;5313;48.834;9.228;2023-08-06T09:45:37;15.80;99.90
10530;DHT22;5313;48.834;9.228;2023-08-06T09:48:07;15.80;99.90
10530;DHT22;5313;48.834;9.228;2023-08-06T09:50:35;15.90;99.90
10530;DHT22;5313;48.834;9.228;2023-08-06T09:53:03;15.90;99.90
10530;DHT22;5313;48.834;9.228;2023-08-06T09:55:29;15.90;99.90
10530;DHT22;5313;48.834;9.228;2023-08-06T09:57:55;15.80;99.90
10530;DHT22;5313;48.834;9.228;2023-08-06T10:00:21;15.80;99.90
10530;DHT22;5313;48.834;9.228;2023-08-06T10:02:48;15.80;99.90
10530;DHT22;5313;48.834;9.228;2023-08-06T10:05:15;15.80;99.90
10530;DHT22;5313;48.834;9.228;2023-08-06T10:07:43;15.60;99.90
10530;DHT22;5313;48.834;9.228;2023-08-06T10:10:09;15.60;99.90
10530;DHT22;5313;48.834;9.228;2023-08-06T10:12:40;15.60;99.90
10530;DHT22;5313;48.834;9.228;2023-08-06T10:15:10;15.60;99.90
10530;DHT22;5313;48.834;9.228;2023-08-06T10:17:37;15.60;99.90
10530;DHT22;5313;48.834;9.228;2023-08-06T10:20:07;15.70;99.90
10530;DHT22;5313;48.834;9.228;2023-08-06T10:22:34;15.90;99.90
10530;DHT22;5313;48.834;9.228;2023-08-06T10:25:00;16.10;99.90
10530;DHT22;5313;48.834;9.228;2023-08-06T10:27:40;16.10;99.90
10530;DHT22;5313;48.834;9.228;2023-08-06T10:30:29;16.20;99.90
10530;DHT22;5313;48.834;9.228;2023-08-06T10:32:57;16.20;99.90
10530;DHT22;5313;48.834;9.228;2023-08-06T10:35:45;16.40;99.90
10530;DHT22;5313;48.834;9.228;2023-08-06T10:38:21;16.50;99.90
10530;DHT22;5313;48.834;9.228;2023-08-06T10:41:01;16.60;99.90
10530;DHT22;5313;48.834;9.228;2023-08-06T10:43:28;16.60;99.90
10530;DHT22;5313;48.834;9.228;2023-08-06T10:45:55;16.70;99.90
10530;DHT22;5313;48.834;9.228;2023-08-06T10:48:38;16.60;99.90
10530;DHT22;5313;48.834;9.228;2023-08-06T10:51:08;16.70;99.90
10530;DHT22;5313;48.834;9.228;2023-08-06T10:53:33;16.70;99.90
10530;DHT22;5313;48.834;9.228;2023-08-06T10:55:59;16.80;99.90
10530;DHT22;5313;48.834;9.228;2023-08-06T10:58:25;16.70;99.90
10530;DHT22;5313;48.834;9.228;2023-08-06T11:00:51;17.80;99.90
10530;DHT22;5313;48.834;9.228;2023-08-06T11:03:17;16.40;99.90
10530;DHT22;5313;48.834;9.228;2023-08-06T11:05:49;16.30;99.90
10530;DHT22;5313;48.834;9.228;2023-08-06T11:08:26;16.00;99.90
10530;DHT22;5313;48.834;9.228;2023-08-06T11:10:52;15.80;99.90
10530;DHT22;5313;48.834;9.228;2023-08-06T11:13:17;15.50;99.90
10530;DHT22;5313;48.834;9.228;2023-08-06T11:15:45;15.30;99.90
10530;DHT22;5313;48.834;9.228;2023-08-06T11:18:11;15.30;99.90
10530;DHT22;5313;48.834;9.228;2023-08-06T11:20:37;15.30;99.90
10530;DHT22;5313;48.834;9.228;2023-08-06T11:23:02;15.40;99.90
10530;DHT22;5313;48.834;9.228;2023-08-06T11:25:28;15.50;99.90
10530;DHT22;5313;48.834;9.228;2023-08-06T11:27:54;15.50;99.90
10530;DHT22;5313;48.834;9.228;2023-08-06T11:30:20;15.40;99.90
10530;DHT22;5313;48.834;9.228;2023-08-06T11:32:46;15.40;99.90
10530;DHT22;5313;48.834;9.228;2023-08-06T11:35:13;15.40;99.90
10530;DHT22;5313;48.834;9.228;2023-08-06T11:37:40;15.50;99.90
10530;DHT22;5313;48.834;9.228;2023-08-06T11:40:09;15.50;99.90
10530;DHT22;5313;48.834;9.228;2023-08-06T11:42:36;15.70;99.90
10530;DHT22;5313;48.834;9.228;2023-08-06T11:45:03;15.80;99.90
10530;DHT22;5313;48.834;9.228;2023-08-06T11:47:29;15.80;99.90
10530;DHT22;5313;48.834;9.228;2023-08-06T11:49:55;15.90;99.90
10530;DHT22;5313;48.834;9.228;2023-08-06T11:52:22;15.90;99.90
10530;DHT22;5313;48.834;9.228;2023-08-06T11:55:08;15.70;99.90
10530;DHT22;5313;48.834;9.228;2023-08-06T11:57:38;15.50;99.90
10530;DHT22;5313;48.834;9.228;2023-08-06T12:00:11;15.40;99.90
10530;DHT22;5313;48.834;9.228;2023-08-06T12:02:39;15.20;99.90
10530;DHT22;5313;48.834;9.228;2023-08-06T12:05:17;15.10;99.90
10530;DHT22;5313;48.834;9.228;2023-08-06T12:08:04;14.90;99.90
10530;DHT22;5313;48.834;9.228;2023-08-06T12:10:31;14.80;99.90
10530;DHT22;5313;48.834;9.228;2023-08-06T12:12:56;14.70;99.90
10530;DHT22;5313;48.834;9.228;2023-08-06T12:15:23;14.60;99.90
10530;DHT22;5313;48.834;9.228;2023-08-06T12:17:49;14.50;99.90
10530;DHT22;5313;48.834;9.228;2023-08-06T12:20:15;14.40;99.90
10530;DHT22;5313;48.834;9.228;2023-08-06T12:22:40;14.30;99.90
10530;DHT22;5313;48.834;9.228;2023-08-06T12:25:07;14.30;99.90
10530;DHT22;5313;48.834;9.228;2023-08-06T12:27:37;14.30;99.90
10530;DHT22;5313;48.834;9.228;2023-08-06T12:30:04;14.30;99.90
10530;DHT22;5313;48.834;9.228;2023-08-06T12:32:30;14.30;99.90
10530;DHT22;5313;48.834;9.228;2023-08-06T12:34:55;14.40;99.90
10530;DHT22;5313;48.834;9.228;2023-08-06T12:37:21;14.50;99.90
10530;DHT22;5313;48.834;9.228;2023-08-06T12:39:47;14.60;99.90
10530;DHT22;5313;48.834;9.228;2023-08-06T12:42:12;14.80;99.90
10530;DHT22;5313;48.834;9.228;2023-08-06T12:44:38;14.90;99.90
10530;DHT22;5313;48.834;9.228;2023-08-06T12:47:03;15.20;99.90
10530;DHT22;5313;48.834;9.228;2023-08-06T12:49:29;15.40;99.90
10530;DHT22;5313;48.834;9.228;2023-08-06T12:51:56;15.60;99.90
10530;DHT22;5313;48.834;9.228;2023-08-06T12:54:22;15.80;99.90
10530;DHT22;5313;48.834;9.228;2023-08-06T12:56:48;15.90;99.90
10530;DHT22;5313;48.834;9.228;2023-08-06T12:59:15;16.00;99.90
10530;DHT22;5313;48.834;9.228;2023-08-06T13:01:41;16.00;99.90
10530;DHT22;5313;48.834;9.228;2023-08-06T13:04:07;16.00;99.90
10530;DHT22;5313;48.834;9.228;2023-08-06T13:06:32;16.00;99.90
10530;DHT22;5313;48.834;9.228;2023-08-06T13:09:06;16.00;99.90
10530;DHT22;5313;48.834;9.228;2023-08-06T13:11:32;16.10;99.90
10530;DHT22;5313;48.834;9.228;2023-08-06T13:14:04;16.20;99.90
10530;DHT22;5313;48.834;9.228;2023-08-06T13:16:30;16.40;99.90
10530;DHT22;5313;48.834;9.228;2023-08-06T13:18:56;16.60;99.90
10530;DHT22;5313;48.834;9.228;2023-08-06T13:21:21;16.70;99.90
10530;DHT22;5313;48.834;9.228;2023-08-06T13:23:47;16.90;99.90
10530;DHT22;5313;48.834;9.228;2023-08-06T13:26:13;16.90;99.90
10530;DHT22;5313;48.834;9.228;2023-08-06T13:28:38;17.00;99.90
10530;DHT22;5313;48.834;9.228;2023-08-06T13:31:04;17.00;99.90
10530;DHT22;5313;48.834;9.228;2023-08-06T13:33:30;17.10;99.90
10530;DHT22;5313;48.834;9.228;2023-08-06T13:35:55;17.10;99.90
10530;DHT22;5313;48.834;9.228;2023-08-06T13:38:21;17.30;99.90
10530;DHT22;5313;48.834;9.228;2023-08-06T13:40:46;17.40;99.90
10530;DHT22;5313;48.834;9.228;2023-08-06T13:43:12;17.50;99.90
10530;DHT22;5313;48.834;9.228;2023-08-06T13:45:37;17.50;99.90
10530;DHT22;5313;48.834;9.228;2023-08-06T13:48:03;17.30;99.90
10530;DHT22;5313;48.834;9.228;2023-08-06T13:50:29;17.10;99.90
10530;DHT22;5313;48.834;9.228;2023-08-06T13:52:55;17.10;99.90
10530;DHT22;5313;48.834;9.228;2023-08-06T13:55:21;17.30;99.90
10530;DHT22;5313;48.834;9.228;2023-08-06T13:57:47;17.20;99.90
10530;DHT22;5313;48.834;9.228;2023-08-06T14:00:13;17.20;99.90
10530;DHT22;5313;48.834;9.228;2023-08-06T14:02:38;17.10;99.90
10530;DHT22;5313;48.834;9.228;2023-08-06T14:05:04;17.00;99.90
10530;DHT22;5313;48.834;9.228;2023-08-06T14:07:30;17.10;99.90
10530;DHT22;5313;48.834;9.228;2023-08-06T14:09:56;17.20;99.90
10530;DHT22;5313;48.834;9.228;2023-08-06T14:12:23;17.10;99.90
10530;DHT22;5313;48.834;9.228;2023-08-06T14:14:48;16.90;99.90
10530;DHT22;5313;48.834;9.228;2023-08-06T14:17:14;16.60;99.90
10530;DHT22;5313;48.834;9.228;2023-08-06T14:19:41;16.30;99.90
10530;DHT22;5313;48.834;9.228;2023-08-06T14:22:06;16.30;99.90
10530;DHT22;5313;48.834;9.228;2023-08-06T14:24:32;16.30;99.90
10530;DHT22;5313;48.834;9.228;2023-08-06T14:26:57;16.40;99.90
10530;DHT22;5313;48.834;9.228;2023-08-06T14:29:23;16.60;99.90
10530;DHT22;5313;48.834;9.228;2023-08-06T14:31:49;16.70;99.90
10530;DHT22;5313;48.834;9.228;2023-08-06T14:34:14;16.70;99.90
10530;DHT22;5313;48.834;9.228;2023-08-06T14:36:40;16.80;99.90
10530;DHT22;5313;48.834;9.228;2023-08-06T14:39:05;16.90;99.90
10530;DHT22;5313;48.834;9.228;2023-08-06T14:41:31;17.10;99.90
10530;DHT22;5313;48.834;9.228;2023-08-06T14:43:56;17.20;99.90
10530;DHT22;5313;48.834;9.228;2023-08-06T14:46:22;17.20;99.90
10530;DHT22;5313;48.834;9.228;2023-08-06T14:48:47;17.20;99.90
10530;DHT22;5313;48.834;9.228;2023-08-06T14:51:13;17.00;99.90
10530;DHT22;5313;48.834;9.228;2023-08-06T14:53:39;17.00;99.90
10530;DHT22;5313;48.834;9.228;2023-08-06T14:56:05;16.90;99.90
10530;DHT22;5313;48.834;9.228;2023-08-06T14:58:31;17.00;99.90
10530;DHT22;5313;48.834;9.228;2023-08-06T15:00:56;17.00;99.90
10530;DHT22;5313;48.834;9.228;2023-08-06T15:03:22;17.00;99.90
10530;DHT22;5313;48.834;9.228;2023-08-06T15:05:48;16.90;99.90
10530;DHT22;5313;48.834;9.228;2023-08-06T15:08:14;16.60;99.90
10530;DHT22;5313;48.834;9.228;2023-08-06T15:10:39;16.60;99.90
10530;DHT22;5313;48.834;9.228;2023-08-06T15:13:05;16.50;99.90
10530;DHT22;5313;48.834;9.228;2023-08-06T15:15:31;16.50;99.90
10530;DHT22;5313;48.834;9.228;2023-08-06T15:17:57;16.40;99.90
10530;DHT22;5313;48.834;9.228;2023-08-06T15:20:23;16.40;99.90
10530;DHT22;5313;48.834;9.228;2023-08-06T15:22:49;16.30;99.90
10530;DHT22;5313;48.834;9.228;2023-08-06T15:25:15;16.30;99.90
10530;DHT22;5313;48.834;9.228;2023-08-06T15:27:40;16.20;99.90
10530;DHT22;5313;48.834;9.228;2023-08-06T15:30:07;16.20;99.90
10530;DHT22;5313;48.834;9.228;2023-08-06T15:32:33;16.40;99.90
10530;DHT22;5313;48.834;9.228;2023-08-06T15:34:58;16.50;99.90
10530;DHT22;5313;48.834;9.228;2023-08-06T15:37:24;16.60;99.90
10530;DHT22;5313;48.834;9.228;2023-08-06T15:39:50;16.70;99.90
10530;DHT22;5313;48.834;9.228;2023-08-06T15:42:16;16.70;99.90
10530;DHT22;5313;48.834;9.228;2023-08-06T15:44:42;16.60;99.90
10530;DHT22;5313;48.834;9.228;2023-08-06T15:47:07;16.60;99.90
10530;DHT22;5313;48.834;9.228;2023-08-06T15:49:33;16.60;99.90